createdAt,value
2022-09-12T17:56:16.902Z,926.72
2022-09-12T17:57:18.029Z,926.70
2022-09-12T17:58:17.627Z,926.73
2022-09-12T17:59:17.827Z,926.74
2022-09-12T18:00:17.703Z,926.77
2022-09-12T18:01:18.077Z,926.80
2022-09-12T18:02:17.616Z,926.81
2022-09-12T18:03:17.590Z,926.87
2022-09-12T18:04:17.624Z,926.85
2022-09-12T18:05:17.634Z,926.84
2022-09-12T18:06:17.664Z,926.78
2022-09-12T18:07:17.644Z,926.79
2022-09-12T18:08:17.655Z,926.78
2022-09-12T18:09:17.666Z,926.78
2022-09-12T18:10:17.498Z,926.78
2022-09-12T18:11:18.010Z,926.80
2022-09-12T18:12:17.576Z,926.81
2022-09-12T18:13:17.644Z,926.84
2022-09-12T18:14:17.620Z,926.85
2022-09-12T18:15:18.416Z,926.90
2022-09-12T18:16:17.566Z,926.93
2022-09-12T18:17:17.449Z,926.95
2022-09-12T18:18:17.526Z,926.96
2022-09-12T18:19:17.522Z,926.97
2022-09-12T18:20:17.378Z,926.97
2022-09-12T18:21:17.475Z,926.95
2022-09-12T18:22:17.499Z,926.92
2022-09-12T18:23:17.345Z,926.86
2022-09-12T18:24:17.379Z,926.82
2022-09-12T18:25:17.426Z,926.78
2022-09-12T18:26:17.390Z,926.78
2022-09-12T18:27:17.396Z,926.79
2022-09-12T18:28:17.336Z,926.81
2022-09-12T18:29:17.304Z,926.85
2022-09-12T18:30:21.586Z,926.86
2022-09-12T18:31:17.435Z,926.85
2022-09-12T18:32:17.540Z,926.83
2022-09-12T18:33:20.739Z,926.81
2022-09-12T18:34:17.345Z,926.77
2022-09-12T18:35:17.343Z,926.74
2022-09-12T18:36:17.291Z,926.72
2022-09-12T18:37:17.294Z,926.69
2022-09-12T18:38:17.406Z,926.66
2022-09-12T18:39:17.793Z,926.65
2022-09-12T18:40:17.768Z,926.64
2022-09-12T18:41:17.283Z,926.66
2022-09-12T18:42:17.187Z,926.66
2022-09-12T18:43:17.137Z,926.66
2022-09-12T18:44:17.138Z,926.65
2022-09-12T18:45:17.553Z,926.63
2022-09-12T18:46:17.196Z,926.65
2022-09-12T18:47:17.266Z,926.66
2022-09-12T18:48:17.225Z,926.68
2022-09-12T18:49:17.879Z,926.70
2022-09-12T18:50:17.179Z,926.70
2022-09-12T18:51:18.014Z,926.69
2022-09-12T18:52:18.996Z,926.67
2022-09-12T18:53:16.998Z,926.68
2022-09-12T18:54:17.087Z,926.66
2022-09-12T18:55:17.412Z,926.65
2022-09-12T18:56:17.078Z,926.65
2022-09-12T18:57:17.328Z,926.65
2022-09-12T18:58:17.607Z,926.66
2022-09-12T18:59:17.121Z,926.66
2022-09-12T19:00:17.032Z,926.65
2022-09-12T19:01:17.154Z,926.65
2022-09-12T19:02:17.059Z,926.65
2022-09-12T19:03:17.033Z,926.64
2022-09-12T19:04:16.947Z,926.65
2022-09-12T19:05:16.870Z,926.65
2022-09-12T19:06:17.794Z,926.57
2022-09-12T19:07:16.961Z,926.53
2022-09-12T19:08:16.981Z,926.48
2022-09-12T19:09:16.990Z,926.45
2022-09-12T19:10:16.908Z,926.42
2022-09-12T19:11:16.902Z,926.38
2022-09-12T19:12:17.514Z,926.36
2022-09-12T19:13:17.940Z,926.33
2022-09-12T19:14:16.924Z,926.35
2022-09-12T19:15:16.924Z,926.33
2022-09-12T19:16:16.903Z,926.38
2022-09-12T19:17:16.831Z,926.39
2022-09-12T19:18:16.840Z,926.40
2022-09-12T19:19:16.832Z,926.37
2022-09-12T19:20:16.843Z,926.35
2022-09-12T19:21:16.876Z,926.31
2022-09-12T19:22:16.783Z,926.36
2022-09-12T19:23:16.771Z,926.39
2022-09-12T19:24:16.743Z,926.41
2022-09-12T19:25:16.790Z,926.45
2022-09-12T19:26:17.024Z,926.46
2022-09-12T19:27:16.685Z,926.47
2022-09-12T19:28:16.703Z,926.46
2022-09-12T19:29:16.774Z,926.46
2022-09-12T19:30:16.818Z,926.44
2022-09-12T19:31:16.894Z,926.45
2022-09-12T19:32:16.756Z,926.47
2022-09-12T19:33:16.633Z,926.48
2022-09-12T19:34:16.639Z,926.43
2022-09-12T19:35:16.653Z,926.51
2022-09-12T19:36:41.276Z,926.60
2022-09-12T19:37:16.666Z,926.59
2022-09-12T19:38:16.593Z,926.58
2022-09-12T19:39:17.500Z,926.56
2022-09-12T19:40:16.840Z,926.53
2022-09-12T19:41:16.610Z,926.54
2022-09-12T19:42:16.589Z,926.53
2022-09-12T19:43:16.706Z,926.52
2022-09-12T19:44:16.506Z,926.55
2022-09-12T19:45:16.505Z,926.56
2022-09-12T19:46:17.430Z,926.58
2022-09-12T19:47:16.521Z,926.60
2022-09-12T19:48:16.525Z,926.62
2022-09-12T19:49:16.531Z,926.66
2022-09-12T19:50:16.449Z,926.65
2022-09-12T19:51:16.449Z,926.67
2022-09-12T19:52:17.559Z,926.66
2022-09-12T19:53:16.416Z,926.66
2022-09-12T19:54:16.468Z,926.62
2022-09-12T19:55:16.899Z,926.62
2022-09-12T19:56:16.411Z,926.56
2022-09-12T19:57:16.490Z,926.57
2022-09-12T19:58:16.326Z,926.56
2022-09-12T19:59:16.395Z,926.56
2022-09-12T20:00:16.420Z,926.56
2022-09-12T20:01:16.988Z,926.56
2022-09-12T20:02:16.545Z,926.57
2022-09-12T20:03:16.252Z,926.57
2022-09-12T20:04:16.437Z,926.54
2022-09-12T20:05:16.344Z,926.57
2022-09-12T20:06:16.277Z,926.58
2022-09-12T20:07:16.346Z,926.57
2022-09-12T20:08:16.188Z,926.57
2022-09-12T20:09:16.198Z,926.59
2022-09-12T20:10:16.200Z,926.61
2022-09-12T20:11:16.307Z,926.61
2022-09-12T20:12:16.258Z,926.64
2022-09-12T20:13:16.283Z,926.67
2022-09-12T20:14:16.148Z,926.70
2022-09-12T20:15:16.131Z,926.73
2022-09-12T20:16:20.588Z,926.71
2022-09-12T20:17:16.311Z,926.70
2022-09-12T20:18:16.252Z,926.72
2022-09-12T20:19:16.162Z,926.70
2022-09-12T20:20:16.062Z,926.68
2022-09-12T20:21:16.069Z,926.67
2022-09-12T20:22:16.076Z,926.67
2022-09-12T20:23:16.250Z,926.68
2022-09-12T20:24:16.190Z,926.69
2022-09-12T20:25:17.085Z,926.71
2022-09-12T20:26:16.991Z,926.75
2022-09-12T20:27:16.078Z,926.76
2022-09-12T20:28:16.066Z,926.78
2022-09-12T20:29:16.119Z,926.78
2022-09-12T20:30:16.103Z,926.81
2022-09-12T20:31:16.165Z,926.87
2022-09-12T20:32:16.001Z,926.82
2022-09-12T20:33:16.008Z,926.82
2022-09-12T20:34:16.564Z,926.81
2022-09-12T20:35:16.249Z,926.81
2022-09-12T20:36:16.067Z,926.79
2022-09-12T20:37:16.036Z,926.78
2022-09-12T20:38:16.051Z,926.76
2022-09-12T20:39:15.948Z,926.76
2022-09-12T20:40:15.993Z,926.76
2022-09-12T20:41:15.958Z,926.77
2022-09-12T20:42:15.967Z,926.77
2022-09-12T20:43:15.985Z,926.76
2022-09-12T20:44:16.202Z,926.75
2022-09-12T20:45:15.918Z,926.75
2022-09-12T20:46:18.632Z,926.74
2022-09-12T20:47:15.904Z,926.72
2022-09-12T20:48:15.904Z,926.73
2022-09-12T20:49:15.917Z,926.76
2022-09-12T20:50:16.435Z,926.78
2022-09-12T20:51:16.253Z,926.79
2022-09-12T20:52:15.836Z,926.81
2022-09-12T20:53:15.841Z,926.82
2022-09-12T20:54:15.850Z,926.83
2022-09-12T20:55:15.853Z,926.80
2022-09-12T20:56:15.756Z,926.79
2022-09-12T20:57:15.799Z,926.78
2022-09-12T20:58:15.774Z,926.77
2022-09-12T20:59:15.775Z,926.76
2022-09-12T21:00:16.603Z,926.75
2022-09-12T21:01:15.979Z,926.75
2022-09-12T21:02:15.756Z,926.73
2022-09-12T21:03:15.703Z,926.71
2022-09-12T21:04:15.715Z,926.72
2022-09-12T21:05:16.664Z,926.71
2022-09-12T21:06:15.747Z,926.72
2022-09-12T21:07:15.931Z,926.75
2022-09-12T21:08:16.059Z,926.75
2022-09-12T21:09:16.660Z,926.75
2022-09-12T21:10:15.764Z,926.75
2022-09-12T21:11:15.678Z,926.71
2022-09-12T21:12:16.600Z,926.71
2022-09-12T21:13:16.408Z,926.73
2022-09-12T21:14:16.515Z,926.70
2022-09-12T21:15:15.803Z,926.72
2022-09-12T21:16:15.675Z,926.78
2022-09-12T21:17:15.812Z,926.81
2022-09-12T21:18:15.762Z,926.84
2022-09-12T21:19:17.590Z,926.87
2022-09-12T21:20:15.617Z,926.89
2022-09-12T21:21:15.613Z,926.89
2022-09-12T21:22:15.544Z,926.90
2022-09-12T21:23:15.629Z,926.91
2022-09-12T21:24:15.531Z,926.91
2022-09-12T21:25:15.949Z,926.91
2022-09-12T21:26:15.545Z,926.87
2022-09-12T21:27:15.558Z,926.89
2022-09-12T21:28:15.566Z,926.88
2022-09-12T21:29:15.462Z,926.87
2022-09-12T21:30:15.683Z,926.90
2022-09-12T21:31:15.957Z,926.93
2022-09-12T21:32:15.480Z,926.93
2022-09-12T21:33:15.509Z,926.93
2022-09-12T21:34:15.400Z,926.98
2022-09-12T21:35:15.509Z,927.06
2022-09-12T21:36:15.426Z,927.12
2022-09-12T21:37:16.556Z,927.22
2022-09-12T21:38:15.502Z,927.32
2022-09-12T21:39:15.440Z,927.39
2022-09-12T21:40:15.402Z,927.47
2022-09-12T21:41:15.290Z,927.50
2022-09-12T21:42:15.295Z,927.51
2022-09-12T21:43:15.373Z,927.49
2022-09-12T21:44:15.275Z,927.36
2022-09-12T21:45:15.288Z,927.24
2022-09-12T21:46:15.290Z,927.11
2022-09-12T21:47:15.285Z,926.99
2022-09-12T21:48:15.209Z,926.89
2022-09-12T21:49:15.480Z,926.88
2022-09-12T21:50:15.334Z,926.86
2022-09-12T21:51:15.182Z,926.87
2022-09-12T21:52:15.217Z,926.87
2022-09-12T21:53:15.220Z,926.82
2022-09-12T21:54:15.358Z,926.75
2022-09-12T21:55:15.239Z,926.67
2022-09-12T21:56:15.160Z,926.59
2022-09-12T21:57:15.167Z,926.48
2022-09-12T21:58:15.102Z,926.43
2022-09-12T21:59:15.138Z,926.40
2022-09-12T22:00:15.077Z,926.29
2022-09-12T22:01:15.479Z,926.33
2022-09-12T22:02:15.122Z,926.25
2022-09-12T22:03:15.307Z,926.22
2022-09-12T22:04:15.130Z,926.27
2022-09-12T22:05:15.055Z,926.37
2022-09-12T22:06:16.398Z,926.32
2022-09-12T22:07:15.012Z,926.35
2022-09-12T22:08:15.017Z,926.32
2022-09-12T22:09:15.026Z,926.42
2022-09-12T22:10:15.041Z,926.32
2022-09-12T22:11:15.049Z,926.24
2022-09-12T22:12:14.995Z,926.16
2022-09-12T22:13:14.952Z,926.16
2022-09-12T22:14:14.934Z,926.18
2022-09-12T22:15:39.613Z,926.11
2022-09-12T22:16:14.991Z,926.17
2022-09-12T22:17:15.027Z,926.24
2022-09-12T22:18:14.883Z,926.22
2022-09-12T22:19:14.965Z,926.20
2022-09-12T22:20:14.897Z,926.17
2022-09-12T22:21:14.952Z,926.17
2022-09-12T22:22:15.156Z,926.20
2022-09-12T22:23:15.505Z,926.22
2022-09-12T22:24:14.825Z,926.35
2022-09-12T22:25:14.805Z,926.31
2022-09-12T22:26:14.816Z,926.44
2022-09-12T22:27:14.819Z,926.45
2022-09-12T22:28:14.794Z,926.43
2022-09-12T22:29:14.835Z,926.43
2022-09-12T22:30:14.756Z,926.40
2022-09-12T22:31:14.928Z,926.39
2022-09-12T22:32:14.760Z,926.42
2022-09-12T22:33:14.720Z,926.44
2022-09-12T22:34:14.828Z,926.52
2022-09-12T22:35:14.770Z,926.57
2022-09-12T22:36:14.745Z,926.55
2022-09-12T22:37:14.740Z,926.54
2022-09-12T22:38:14.692Z,926.55
2022-09-12T22:39:14.742Z,926.55
2022-09-12T22:40:14.749Z,926.60
2022-09-12T22:41:14.731Z,926.64
2022-09-12T22:42:14.619Z,926.60
2022-09-12T22:43:14.685Z,926.62
2022-09-12T22:44:14.635Z,926.62
2022-09-12T22:45:14.639Z,926.60
2022-09-12T22:46:14.894Z,926.62
2022-09-12T22:47:14.651Z,926.67
2022-09-12T22:48:14.716Z,926.72
2022-09-12T22:49:14.663Z,926.70
2022-09-12T22:50:14.572Z,926.70
2022-09-12T22:51:14.493Z,926.71
2022-09-12T22:52:14.581Z,926.77
2022-09-12T22:53:14.895Z,926.70
2022-09-12T22:54:14.490Z,926.73
2022-09-12T22:55:14.549Z,926.73
2022-09-12T22:56:14.566Z,926.73
2022-09-12T22:57:14.518Z,926.76
2022-09-12T22:58:14.475Z,926.75
2022-09-12T22:59:14.574Z,926.80
2022-09-12T23:00:14.431Z,926.78
2022-09-12T23:01:14.583Z,926.77
2022-09-12T23:02:14.504Z,926.75
2022-09-12T23:03:14.798Z,926.78
2022-09-12T23:04:14.502Z,926.77
2022-09-12T23:05:14.465Z,926.79
2022-09-12T23:06:14.521Z,926.70
2022-09-12T23:07:14.372Z,926.71
2022-09-12T23:08:14.450Z,926.74
2022-09-12T23:09:14.437Z,926.72
2022-09-12T23:10:14.462Z,926.74
2022-09-12T23:11:14.346Z,926.76
2022-09-12T23:12:14.315Z,926.83
2022-09-12T23:13:14.316Z,926.85
2022-09-12T23:14:14.323Z,926.91
2022-09-12T23:15:14.290Z,926.97
2022-09-12T23:16:14.279Z,926.98
2022-09-12T23:17:15.026Z,927.01
2022-09-12T23:18:14.307Z,927.04
2022-09-12T23:19:14.258Z,927.07
2022-09-12T23:20:14.420Z,927.11
2022-09-12T23:21:14.221Z,927.12
2022-09-12T23:22:14.181Z,927.20
2022-09-12T23:23:14.249Z,927.29
2022-09-12T23:24:14.255Z,927.45
2022-09-12T23:25:14.248Z,927.63
2022-09-12T23:26:14.157Z,927.78
2022-09-12T23:27:15.087Z,927.91
2022-09-12T23:28:14.167Z,928.00
2022-09-12T23:29:14.164Z,928.05
2022-09-12T23:30:14.163Z,927.97
2022-09-12T23:31:14.215Z,927.92
2022-09-12T23:32:14.137Z,927.88
2022-09-12T23:33:14.182Z,927.89
2022-09-12T23:34:14.204Z,927.88
2022-09-12T23:35:14.096Z,927.90
2022-09-12T23:36:14.241Z,927.80
2022-09-12T23:37:14.749Z,927.86
2022-09-12T23:38:14.824Z,927.98
2022-09-12T23:39:14.022Z,927.86
2022-09-12T23:40:14.272Z,927.89
2022-09-12T23:41:14.028Z,927.93
2022-09-12T23:42:13.984Z,927.87
2022-09-12T23:43:14.082Z,927.86
2022-09-12T23:44:14.065Z,927.88
2022-09-12T23:45:14.099Z,927.94
2022-09-12T23:46:14.153Z,928.01
2022-09-12T23:47:13.993Z,928.03
2022-09-12T23:48:13.917Z,927.91
2022-09-12T23:49:14.007Z,927.66
2022-09-12T23:50:14.110Z,927.46
2022-09-12T23:51:13.998Z,927.33
2022-09-12T23:52:14.126Z,927.28
2022-09-12T23:53:13.846Z,927.17
2022-09-12T23:54:14.041Z,927.23
2022-09-12T23:55:13.947Z,927.19
2022-09-12T23:56:13.938Z,927.12
2022-09-12T23:57:13.842Z,927.08
2022-09-12T23:58:13.871Z,927.09
2022-09-12T23:59:13.865Z,927.05
